createdAt,value
2018-09-15T00:00:25.786Z,99.99
2018-09-15T00:01:25.777Z,99.99
2018-09-15T00:02:25.747Z,99.99
2018-09-15T00:03:25.731Z,99.99
2018-09-15T00:04:25.719Z,99.99
2018-09-15T00:05:25.700Z,99.99
2018-09-15T00:06:25.690Z,99.99
2018-09-15T00:07:25.661Z,99.99
2018-09-15T00:08:25.645Z,99.99
2018-09-15T00:09:25.637Z,99.99
2018-09-15T00:10:25.617Z,99.99
2018-09-15T00:11:25.602Z,99.99
2018-09-15T00:12:25.578Z,99.99
2018-09-15T00:13:25.566Z,99.99
2018-09-15T00:14:25.544Z,99.99
2018-09-15T00:15:25.535Z,99.99
2018-09-15T00:16:25.515Z,99.99
2018-09-15T00:17:25.487Z,99.99
2018-09-15T00:18:25.477Z,99.99
2018-09-15T00:19:25.458Z,99.99
2018-09-15T00:20:25.443Z,99.99
2018-09-15T00:21:25.420Z,99.99
2018-09-15T00:22:25.408Z,99.99
2018-09-15T00:23:25.382Z,99.99
2018-09-15T00:24:25.373Z,99.99
2018-09-15T00:25:25.356Z,99.99
2018-09-15T00:26:25.357Z,99.99
2018-09-15T00:27:25.318Z,99.99
2018-09-15T00:28:25.303Z,99.99
2018-09-15T00:29:25.280Z,99.99
2018-09-15T00:30:25.261Z,99.99
2018-09-15T00:31:25.249Z,99.99
2018-09-15T00:32:25.233Z,99.99
2018-09-15T00:33:25.214Z,99.99
2018-09-15T00:34:25.195Z,99.99
2018-09-15T00:35:25.185Z,99.99
2018-09-15T00:36:25.157Z,99.99
2018-09-15T00:37:25.144Z,99.99
2018-09-15T00:38:25.121Z,99.99
2018-09-15T00:39:25.102Z,99.99
2018-09-15T00:40:25.093Z,99.99
2018-09-15T00:41:25.079Z,99.99
2018-09-15T00:42:25.047Z,99.99
2018-09-15T00:43:25.034Z,99.99
2018-09-15T00:44:25.028Z,99.99
2018-09-15T00:45:24.993Z,99.99
2018-09-15T00:46:24.980Z,99.99
2018-09-15T00:47:24.964Z,99.99
2018-09-15T00:48:24.941Z,99.99
2018-09-15T00:49:24.935Z,99.99
2018-09-15T00:50:24.905Z,99.99
2018-09-15T00:51:24.884Z,99.99
2018-09-15T00:52:24.864Z,99.99
2018-09-15T00:53:24.849Z,99.99
2018-09-15T00:54:24.833Z,99.99
2018-09-15T00:55:24.817Z,99.99
2018-09-15T00:56:24.798Z,99.99
2018-09-15T00:57:24.781Z,99.99
2018-09-15T00:58:24.772Z,99.99
2018-09-15T00:59:24.751Z,99.99
2018-09-15T01:00:24.721Z,99.99
2018-09-15T01:01:24.698Z,99.99
2018-09-15T01:02:24.727Z,99.99
2018-09-15T01:03:24.663Z,99.99
2018-09-15T01:04:24.648Z,99.99
2018-09-15T01:05:24.629Z,99.99
2018-09-15T01:06:24.621Z,99.99
2018-09-15T01:07:24.588Z,99.99
2018-09-15T01:08:24.571Z,99.99
2018-09-15T01:09:24.562Z,99.99
2018-09-15T01:10:24.533Z,99.99
2018-09-15T01:11:24.517Z,99.99
2018-09-15T01:12:24.495Z,99.99
2018-09-15T01:13:24.477Z,99.99
2018-09-15T01:14:24.534Z,99.99
2018-09-15T01:15:24.441Z,99.99
2018-09-15T01:16:24.419Z,99.99
2018-09-15T01:17:24.402Z,99.99
2018-09-15T01:18:24.384Z,99.99
2018-09-15T01:19:24.371Z,99.99
2018-09-15T01:20:24.342Z,99.99
2018-09-15T01:21:24.329Z,99.99
2018-09-15T01:22:24.313Z,99.99
2018-09-15T01:23:24.288Z,99.99
2018-09-15T01:24:24.268Z,99.99
2018-09-15T01:25:24.256Z,99.99
2018-09-15T01:26:24.232Z,99.99
2018-09-15T01:27:24.206Z,99.99
2018-09-15T01:28:24.191Z,99.99
2018-09-15T01:29:24.168Z,99.99
2018-09-15T01:30:24.159Z,99.99
2018-09-15T01:31:24.133Z,99.99
2018-09-15T01:32:24.111Z,99.99
2018-09-15T01:33:24.117Z,99.99
2018-09-15T01:34:24.075Z,99.99
2018-09-15T01:35:24.051Z,99.99
2018-09-15T01:36:24.035Z,99.99
2018-09-15T01:37:24.013Z,99.99
2018-09-15T01:38:23.993Z,99.99
2018-09-15T01:39:23.974Z,99.99
2018-09-15T01:40:23.951Z,99.99
2018-09-15T01:41:23.936Z,99.99
2018-09-15T01:42:23.920Z,99.99
2018-09-15T01:43:23.907Z,99.99
2018-09-15T01:44:23.882Z,99.99
2018-09-15T01:45:23.856Z,99.99
2018-09-15T01:46:23.836Z,99.99
2018-09-15T01:47:23.810Z,99.99
2018-09-15T01:48:23.796Z,99.99
2018-09-15T01:49:23.781Z,99.99
2018-09-15T01:50:23.762Z,99.99
2018-09-15T01:51:23.743Z,99.99
2018-09-15T01:52:23.717Z,99.99
2018-09-15T01:53:23.699Z,99.99
2018-09-15T01:54:23.689Z,99.99
2018-09-15T01:55:23.663Z,99.99
2018-09-15T01:56:23.640Z,99.99
2018-09-15T01:57:23.648Z,99.99
2018-09-15T01:58:23.605Z,99.99
2018-09-15T01:59:23.586Z,99.99
2018-09-15T02:00:23.567Z,99.99
2018-09-15T02:01:23.545Z,99.99
2018-09-15T02:02:23.526Z,99.99
2018-09-15T02:03:23.506Z,99.99
2018-09-15T02:04:23.481Z,99.99
2018-09-15T02:05:23.461Z,99.99
2018-09-15T02:06:23.439Z,99.99
2018-09-15T02:07:23.427Z,99.99
2018-09-15T02:08:23.400Z,99.99
2018-09-15T02:09:23.381Z,99.99
2018-09-15T02:10:23.361Z,99.99
2018-09-15T02:11:23.340Z,99.99
2018-09-15T02:12:23.321Z,99.99
2018-09-15T02:13:23.304Z,99.99
2018-09-15T02:14:23.286Z,99.99
2018-09-15T02:15:23.259Z,99.99
2018-09-15T02:16:23.240Z,99.99
2018-09-15T02:17:23.228Z,99.99
2018-09-15T02:18:23.210Z,99.99
2018-09-15T02:19:23.180Z,99.99
2018-09-15T02:20:23.170Z,99.99
2018-09-15T02:21:23.141Z,99.99
2018-09-15T02:22:23.129Z,99.99
2018-09-15T02:23:23.097Z,99.99
2018-09-15T02:24:23.084Z,99.99
2018-09-15T02:25:23.068Z,99.99
2018-09-15T02:26:23.050Z,99.99
2018-09-15T02:27:23.018Z,99.99
2018-09-15T02:28:23.008Z,99.99
2018-09-15T02:29:22.980Z,99.99
2018-09-15T02:30:22.962Z,99.99
2018-09-15T02:31:22.951Z,99.99
2018-09-15T02:32:22.925Z,99.99
2018-09-15T02:33:22.900Z,99.99
2018-09-15T02:34:22.887Z,99.99
2018-09-15T02:35:22.858Z,99.99
2018-09-15T02:36:22.840Z,99.99
2018-09-15T02:37:22.817Z,99.99
2018-09-15T02:38:22.799Z,99.99
2018-09-15T02:39:22.778Z,99.99
2018-09-15T02:40:22.763Z,99.99
2018-09-15T02:41:22.752Z,99.99
2018-09-15T02:42:22.726Z,99.99
2018-09-15T02:43:22.696Z,99.99
2018-09-15T02:44:22.702Z,99.99
2018-09-15T02:45:22.666Z,99.99
2018-09-15T02:46:22.645Z,99.99
2018-09-15T02:47:22.616Z,99.99
2018-09-15T02:48:22.604Z,99.99
2018-09-15T02:49:22.578Z,99.99
2018-09-15T02:50:22.564Z,99.99
2018-09-15T02:51:22.536Z,99.99
2018-09-15T02:52:22.513Z,99.99
2018-09-15T02:53:22.501Z,99.99
2018-09-15T02:54:22.491Z,99.99
2018-09-15T02:55:22.459Z,99.99
2018-09-15T02:56:22.437Z,99.99
2018-09-15T02:57:22.421Z,99.99
2018-09-15T02:58:22.408Z,99.99
2018-09-15T02:59:22.373Z,99.99
2018-09-15T03:00:22.362Z,99.99
2018-09-15T03:01:22.345Z,99.99
2018-09-15T03:02:22.320Z,99.99
2018-09-15T03:03:22.313Z,99.99
2018-09-15T03:04:22.284Z,99.99
2018-09-15T03:05:23.240Z,99.99
2018-09-15T03:06:22.240Z,99.99
2018-09-15T03:07:22.221Z,99.99
2018-09-15T03:08:22.198Z,99.99
2018-09-15T03:09:22.183Z,99.99
2018-09-15T03:10:22.155Z,99.99
2018-09-15T03:11:22.132Z,99.99
2018-09-15T03:12:22.109Z,99.99
2018-09-15T03:13:22.106Z,99.99
2018-09-15T03:14:22.084Z,99.99
2018-09-15T03:15:22.052Z,99.99
2018-09-15T03:16:22.040Z,99.99
2018-09-15T03:17:22.017Z,99.99
2018-09-15T03:18:21.998Z,99.99
2018-09-15T03:19:21.978Z,99.99
2018-09-15T03:20:21.957Z,99.99
2018-09-15T03:21:21.931Z,99.99
2018-09-15T03:22:21.922Z,99.99
2018-09-15T03:23:21.890Z,99.99
2018-09-15T03:24:21.877Z,99.99
2018-09-15T03:25:21.843Z,99.99
2018-09-15T03:26:21.830Z,99.99
2018-09-15T03:27:21.812Z,99.99
2018-09-15T03:28:21.789Z,99.99
2018-09-15T03:29:21.776Z,99.99
2018-09-15T03:30:21.747Z,99.99
2018-09-15T03:31:21.735Z,99.99
2018-09-15T03:32:21.714Z,99.99
2018-09-15T03:33:21.688Z,99.99
2018-09-15T03:34:21.683Z,99.99
2018-09-15T03:35:21.646Z,99.99
2018-09-15T03:36:21.624Z,99.99
2018-09-15T03:37:21.605Z,99.99
2018-09-15T03:38:21.589Z,99.99
2018-09-15T03:39:21.566Z,99.99
2018-09-15T03:40:21.550Z,99.99
2018-09-15T03:41:21.593Z,99.99
2018-09-15T03:42:21.510Z,99.99
2018-09-15T03:43:21.487Z,99.99
2018-09-15T03:44:21.463Z,99.99
2018-09-15T03:45:21.444Z,99.99
2018-09-15T03:46:21.418Z,99.99
2018-09-15T03:47:21.408Z,99.99
2018-09-15T03:48:21.380Z,99.99
2018-09-15T03:49:21.358Z,99.99
2018-09-15T03:50:21.343Z,99.99
2018-09-15T03:51:21.329Z,99.99
2018-09-15T03:52:21.303Z,99.99
2018-09-15T03:53:21.277Z,99.99
2018-09-15T03:54:21.258Z,99.99
2018-09-15T03:55:21.248Z,99.99
2018-09-15T03:56:21.223Z,99.99
2018-09-15T03:57:21.190Z,99.99
2018-09-15T03:58:21.172Z,99.99
2018-09-15T03:59:21.152Z,99.99
2018-09-15T04:00:21.131Z,99.99
2018-09-15T04:01:21.113Z,99.99
2018-09-15T04:02:21.094Z,99.99
2018-09-15T04:03:21.072Z,99.99
2018-09-15T04:04:21.050Z,99.99
2018-09-15T04:05:21.024Z,99.99
2018-09-15T04:06:21.004Z,99.99
2018-09-15T04:07:20.988Z,99.99
2018-09-15T04:08:20.969Z,99.99
2018-09-15T04:09:20.944Z,99.99
2018-09-15T04:10:20.928Z,99.99
2018-09-15T04:11:20.918Z,99.99
2018-09-15T04:12:20.883Z,99.99
2018-09-15T04:13:20.864Z,99.99
2018-09-15T04:14:20.834Z,99.99
2018-09-15T04:15:20.822Z,99.99
2018-09-15T04:16:20.793Z,99.99
2018-09-15T04:17:20.776Z,99.99
2018-09-15T04:18:20.761Z,99.99
2018-09-15T04:19:20.735Z,99.99
2018-09-15T04:20:20.707Z,99.99
2018-09-15T04:21:20.700Z,99.99
2018-09-15T04:22:20.665Z,99.99
2018-09-15T04:23:20.658Z,99.99
2018-09-15T04:24:20.633Z,99.99
2018-09-15T04:25:21.242Z,99.99
2018-09-15T04:26:20.593Z,99.99
2018-09-15T04:27:20.567Z,99.99
2018-09-15T04:28:20.621Z,99.99
2018-09-15T04:29:21.245Z,99.99
2018-09-15T04:30:21.245Z,99.99
2018-09-15T04:31:20.484Z,99.99
2018-09-15T04:32:20.459Z,99.99
2018-09-15T04:33:20.471Z,99.99
2018-09-15T04:34:20.419Z,99.99
2018-09-15T04:35:20.412Z,99.99
2018-09-15T04:36:20.373Z,99.99
2018-09-15T04:37:20.351Z,99.99
2018-09-15T04:38:20.331Z,99.99
2018-09-15T04:39:20.321Z,99.99
2018-09-15T04:40:20.289Z,99.99
2018-09-15T04:41:20.267Z,99.99
2018-09-15T04:42:20.245Z,99.99
2018-09-15T04:43:20.224Z,99.99
2018-09-15T04:44:20.205Z,99.99
2018-09-15T04:45:20.188Z,99.99
2018-09-15T04:46:20.168Z,99.99
2018-09-15T04:47:20.155Z,99.99
2018-09-15T04:48:20.123Z,99.99
2018-09-15T04:49:20.104Z,99.99
2018-09-15T04:50:20.082Z,99.99
2018-09-15T04:51:20.059Z,99.99
2018-09-15T04:52:20.041Z,99.99
2018-09-15T04:53:20.012Z,99.99
2018-09-15T04:54:19.993Z,99.99
2018-09-15T04:55:19.980Z,99.99
2018-09-15T04:56:19.951Z,99.99
2018-09-15T04:57:19.927Z,99.99
2018-09-15T04:58:19.907Z,99.99
2018-09-15T04:59:19.890Z,99.99
2018-09-15T05:00:19.865Z,99.99
2018-09-15T05:01:19.847Z,99.99
2018-09-15T05:02:19.824Z,99.99
2018-09-15T05:03:19.802Z,99.99
2018-09-15T05:04:19.776Z,99.99
2018-09-15T05:05:19.760Z,99.99
2018-09-15T05:06:19.739Z,99.99
2018-09-15T05:07:19.713Z,99.99
2018-09-15T05:08:19.700Z,99.99
2018-09-15T05:09:19.681Z,99.99
2018-09-15T05:10:19.655Z,99.99
2018-09-15T05:11:19.630Z,99.99
2018-09-15T05:12:19.675Z,99.99
2018-09-15T05:13:19.592Z,99.99
2018-09-15T05:14:19.572Z,99.99
2018-09-15T05:15:19.540Z,99.99
2018-09-15T05:16:19.537Z,99.99
2018-09-15T05:17:19.509Z,99.99
2018-09-15T05:18:19.483Z,99.99
2018-09-15T05:19:19.464Z,99.99
2018-09-15T05:20:19.447Z,99.99
2018-09-15T05:21:19.415Z,99.99
2018-09-15T05:22:19.396Z,99.99
2018-09-15T05:23:19.373Z,99.99
2018-09-15T05:24:19.370Z,99.99
2018-09-15T05:25:19.332Z,99.99
2018-09-15T05:26:19.310Z,99.99
2018-09-15T05:27:19.290Z,99.99
2018-09-15T05:28:19.294Z,99.99
2018-09-15T05:29:19.246Z,99.99
2018-09-15T05:30:19.230Z,99.99
2018-09-15T05:31:19.218Z,99.99
2018-09-15T05:32:19.183Z,99.99
2018-09-15T05:33:19.160Z,99.99
2018-09-15T05:34:19.152Z,99.99
2018-09-15T05:35:19.122Z,99.99
2018-09-15T05:36:19.096Z,99.99
2018-09-15T05:37:19.083Z,99.99
2018-09-15T05:38:19.064Z,99.99
2018-09-15T05:39:19.038Z,99.99
2018-09-15T05:40:19.013Z,99.99
2018-09-15T05:41:18.996Z,99.99
2018-09-15T05:42:18.980Z,99.99
2018-09-15T05:43:18.959Z,99.99
2018-09-15T05:44:18.936Z,99.99
2018-09-15T05:45:18.917Z,99.99
2018-09-15T05:46:18.888Z,99.99
2018-09-15T05:47:18.868Z,99.99
2018-09-15T05:48:18.849Z,99.99
2018-09-15T05:49:18.823Z,99.99
2018-09-15T05:50:18.810Z,99.99
2018-09-15T05:51:18.781Z,99.99
2018-09-15T05:52:18.762Z,99.99
2018-09-15T05:53:18.749Z,99.99
2018-09-15T05:54:18.725Z,99.99
2018-09-15T05:55:18.695Z,99.99
2018-09-15T05:56:18.676Z,99.99
2018-09-15T05:57:18.664Z,99.99
2018-09-15T05:58:18.643Z,99.99
2018-09-15T05:59:18.637Z,99.99
2018-09-15T06:00:18.592Z,99.99
2018-09-15T06:01:18.570Z,99.99
2018-09-15T06:02:18.560Z,99.99
2018-09-15T06:03:18.535Z,99.99
2018-09-15T06:04:18.513Z,99.99
2018-09-15T06:05:18.504Z,99.99
2018-09-15T06:06:18.467Z,99.99
2018-09-15T06:07:18.448Z,99.99
2018-09-15T06:08:18.426Z,99.99
2018-09-15T06:09:18.403Z,99.99
2018-09-15T06:10:18.384Z,99.99
2018-09-15T06:11:18.364Z,99.99
2018-09-15T06:12:18.346Z,99.99
2018-09-15T06:13:18.320Z,99.99
2018-09-15T06:14:18.307Z,99.99
2018-09-15T06:15:18.284Z,99.99
2018-09-15T06:16:18.262Z,99.99
2018-09-15T06:17:18.235Z,99.99
2018-09-15T06:18:18.219Z,99.99
2018-09-15T06:19:18.200Z,99.99
2018-09-15T06:20:18.171Z,99.99
2018-09-15T06:21:18.154Z,99.99
2018-09-15T06:22:18.139Z,99.99
2018-09-15T06:23:18.120Z,99.99
2018-09-15T06:24:18.091Z,99.99
2018-09-15T06:25:18.073Z,99.99
2018-09-15T06:26:18.052Z,99.99
2018-09-15T06:27:18.035Z,99.99
2018-09-15T06:28:18.016Z,99.99
2018-09-15T06:29:17.987Z,99.99
2018-09-15T06:30:17.970Z,99.99
2018-09-15T06:31:17.955Z,99.99
2018-09-15T06:32:17.929Z,99.99
2018-09-15T06:33:17.907Z,99.99
2018-09-15T06:34:17.887Z,99.99
2018-09-15T06:35:17.868Z,99.99
2018-09-15T06:36:17.909Z,99.99
2018-09-15T06:37:17.823Z,99.99
2018-09-15T06:38:17.808Z,99.99
2018-09-15T06:39:17.829Z,99.99
2018-09-15T06:40:17.788Z,99.99
2018-09-15T06:41:17.754Z,99.99
2018-09-15T06:42:17.731Z,99.99
2018-09-15T06:43:17.702Z,99.99
2018-09-15T06:44:17.699Z,99.99
2018-09-15T06:45:17.671Z,99.99
2018-09-15T06:46:17.645Z,99.99
2018-09-15T06:47:17.638Z,99.99
2018-09-15T06:48:17.605Z,99.99
2018-09-15T06:49:17.594Z,99.99
2018-09-15T06:50:17.571Z,99.99
2018-09-15T06:51:17.604Z,99.99
2018-09-15T06:52:17.532Z,99.99
2018-09-15T06:53:17.510Z,99.99
2018-09-15T06:54:17.491Z,99.99
2018-09-15T06:55:17.510Z,99.99
2018-09-15T06:56:17.454Z,99.99
2018-09-15T06:57:17.428Z,99.99
2018-09-15T06:58:17.409Z,99.99
2018-09-15T06:59:17.386Z,99.99
2018-09-15T07:00:17.370Z,99.99
2018-09-15T07:01:17.351Z,99.99
2018-09-15T07:02:17.332Z,99.99
2018-09-15T07:03:17.313Z,99.99
2018-09-15T07:04:17.293Z,99.99
2018-09-15T07:05:17.284Z,99.99
2018-09-15T07:06:17.262Z,99.99
2018-09-15T07:07:17.234Z,99.99
2018-09-15T07:08:17.227Z,99.99
2018-09-15T07:09:17.198Z,99.99
2018-09-15T07:10:17.179Z,99.99
2018-09-15T07:11:17.157Z,99.99
2018-09-15T07:12:17.141Z,99.99
2018-09-15T07:13:17.122Z,99.99
2018-09-15T07:14:17.103Z,99.99
2018-09-15T07:15:17.087Z,99.99
2018-09-15T07:16:17.070Z,99.99
2018-09-15T07:17:17.059Z,99.99
2018-09-15T07:18:17.028Z,99.99
2018-09-15T07:19:17.015Z,99.99
2018-09-15T07:20:17.000Z,99.99
2018-09-15T07:21:16.977Z,99.99
2018-09-15T07:22:16.957Z,99.99
2018-09-15T07:23:16.932Z,99.99
2018-09-15T07:24:16.925Z,99.99
2018-09-15T07:25:16.896Z,99.99
2018-09-15T07:26:16.887Z,99.99
2018-09-15T07:27:16.874Z,99.99
2018-09-15T07:28:16.847Z,99.99
2018-09-15T07:29:16.828Z,99.99
2018-09-15T07:30:16.818Z,99.99
2018-09-15T07:31:16.861Z,99.99
2018-09-15T07:32:16.796Z,99.99
2018-09-15T07:33:16.757Z,99.99
2018-09-15T07:34:16.741Z,99.52
2018-09-15T07:35:17.278Z,99.99
2018-09-15T07:36:16.709Z,99.99
2018-09-15T07:37:16.703Z,99.99
2018-09-15T07:38:16.678Z,96.70
2018-09-15T07:39:16.655Z,93.44
2018-09-15T07:40:16.639Z,95.12
2018-09-15T07:41:16.629Z,93.59
2018-09-15T07:42:16.613Z,93.44
2018-09-15T07:43:16.590Z,94.16
2018-09-15T07:44:16.577Z,92.57
2018-09-15T07:45:16.575Z,89.16
2018-09-15T07:46:16.552Z,88.92
2018-09-15T07:47:16.536Z,87.76
2018-09-15T07:48:16.514Z,84.21
2018-09-15T07:49:16.501Z,81.27
2018-09-15T07:50:16.485Z,82.42
2018-09-15T07:51:16.469Z,82.46
2018-09-15T07:52:16.459Z,81.63
2018-09-15T07:53:16.443Z,78.17
2018-09-15T07:54:16.439Z,78.50
2018-09-15T07:55:16.420Z,77.01
2018-09-15T07:56:16.402Z,79.81
2018-09-15T07:57:16.397Z,79.90
2018-09-15T07:58:16.379Z,77.50
2018-09-15T07:59:16.367Z,76.06
2018-09-15T08:00:16.350Z,75.51
2018-09-15T08:01:16.340Z,75.61
2018-09-15T08:02:16.331Z,77.09
2018-09-15T08:03:16.305Z,75.01
2018-09-15T08:04:16.292Z,73.99
2018-09-15T08:05:16.286Z,71.61
2018-09-15T08:06:16.274Z,70.97
2018-09-15T08:07:16.257Z,68.75
2018-09-15T08:08:16.244Z,65.95
2018-09-15T08:09:16.253Z,67.11
2018-09-15T08:10:16.225Z,67.30
2018-09-15T08:11:16.213Z,68.20
2018-09-15T08:12:16.201Z,67.94
2018-09-15T08:13:16.184Z,67.75
2018-09-15T08:14:16.177Z,66.43
2018-09-15T08:15:16.158Z,66.05
2018-09-15T08:16:16.152Z,66.53
2018-09-15T08:17:16.135Z,65.17
2018-09-15T08:18:16.125Z,64.11
2018-09-15T08:19:16.119Z,63.08
2018-09-15T08:20:16.106Z,65.01
2018-09-15T08:21:16.091Z,63.21
2018-09-15T08:22:16.084Z,59.82
2018-09-15T08:23:16.101Z,61.66
2018-09-15T08:24:16.058Z,63.46
2018-09-15T08:25:16.060Z,62.95
2018-09-15T08:26:16.051Z,65.92
2018-09-15T08:27:16.030Z,65.01
2018-09-15T08:28:16.023Z,64.53
2018-09-15T08:29:16.007Z,67.33
2018-09-15T08:30:15.996Z,66.08
2018-09-15T08:31:15.991Z,63.95
2018-09-15T08:32:15.972Z,65.08
2018-09-15T08:33:15.963Z,66.72
2018-09-15T08:34:15.959Z,66.94
2018-09-15T08:35:15.940Z,65.69
2018-09-15T08:36:15.933Z,65.72
2018-09-15T08:37:15.931Z,65.47
2018-09-15T08:38:15.925Z,63.14
2018-09-15T08:39:15.901Z,61.89
2018-09-15T08:40:15.904Z,61.82
2018-09-15T08:41:15.940Z,58.82
2018-09-15T08:42:15.872Z,59.63
2018-09-15T08:43:15.866Z,60.30
2018-09-15T08:44:15.856Z,61.36
2018-09-15T08:45:15.843Z,60.47
2018-09-15T08:46:15.838Z,61.85
2018-09-15T08:47:15.827Z,61.24
2018-09-15T08:48:15.875Z,62.82
2018-09-15T08:49:15.798Z,60.59
2018-09-15T08:50:15.791Z,58.07
2018-09-15T08:51:15.779Z,59.27
2018-09-15T08:52:15.801Z,59.94
2018-09-15T08:53:15.760Z,62.07
2018-09-15T08:54:15.756Z,61.36
2018-09-15T08:55:15.759Z,62.34
2018-09-15T08:56:15.798Z,63.66
2018-09-15T08:57:15.727Z,63.85
2018-09-15T08:58:15.721Z,61.43
2018-09-15T08:59:15.705Z,60.37
2018-09-15T09:00:15.718Z,59.40
2018-09-15T09:01:15.682Z,61.05
2018-09-15T09:02:15.672Z,59.91
2018-09-15T09:03:15.889Z,58.53
2018-09-15T09:04:15.711Z,59.98
2018-09-15T09:05:15.763Z,62.63
2018-09-15T09:06:15.689Z,61.46
2018-09-15T09:07:15.775Z,62.66
2018-09-15T09:08:15.660Z,60.04
2018-09-15T09:09:15.699Z,59.63
2018-09-15T09:10:15.614Z,60.69
2018-09-15T09:11:15.606Z,59.07
2018-09-15T09:12:15.654Z,62.07
2018-09-15T09:13:15.652Z,57.04
2018-09-15T09:14:15.575Z,58.34
2018-09-15T09:15:15.580Z,57.50
2018-09-15T09:16:15.546Z,59.84
2018-09-15T09:17:15.549Z,59.49
2018-09-15T09:18:15.527Z,59.69
2018-09-15T09:19:15.530Z,59.20
2018-09-15T09:20:15.530Z,56.68
2018-09-15T09:21:15.532Z,55.49
2018-09-15T09:22:15.495Z,57.05
2018-09-15T09:23:15.553Z,62.02
2018-09-15T09:24:15.497Z,63.82
2018-09-15T09:25:15.460Z,64.43
2018-09-15T09:26:15.542Z,64.47
2018-09-15T09:27:15.443Z,65.85
2018-09-15T09:28:15.444Z,62.89
2018-09-15T09:29:15.431Z,61.95
2018-09-15T09:30:15.421Z,63.05
2018-09-15T09:31:15.402Z,61.63
2018-09-15T09:32:15.436Z,62.37
2018-09-15T09:33:15.432Z,58.16
2018-09-15T09:34:15.383Z,58.47
2018-09-15T09:35:15.391Z,60.95
2018-09-15T09:36:15.383Z,59.53
2018-09-15T09:37:15.357Z,57.81
2018-09-15T09:38:15.390Z,56.71
2018-09-15T09:39:15.331Z,56.54
2018-09-15T09:40:15.325Z,55.87
2018-09-15T09:41:15.327Z,55.77
2018-09-15T09:42:15.303Z,56.71
2018-09-15T09:43:15.313Z,58.00
2018-09-15T09:44:15.290Z,55.06
2018-09-15T09:45:15.274Z,57.29
2018-09-15T09:46:15.274Z,55.06
2018-09-15T09:47:15.266Z,56.90
2018-09-15T09:48:15.326Z,58.59
2018-09-15T09:49:15.247Z,59.69
2018-09-15T09:50:15.240Z,55.78
2018-09-15T09:51:15.227Z,55.30
2018-09-15T09:52:15.217Z,55.00
2018-09-15T09:53:15.216Z,58.07
2018-09-15T09:54:15.197Z,57.84
2018-09-15T09:55:15.194Z,54.35
2018-09-15T09:56:15.188Z,53.49
2018-09-15T09:57:15.182Z,55.70
2018-09-15T09:58:15.166Z,57.06
2018-09-15T09:59:15.156Z,60.31
2018-09-15T10:00:15.153Z,62.63
2018-09-15T10:01:15.181Z,62.31
2018-09-15T10:02:15.140Z,63.73
2018-09-15T10:03:15.135Z,63.14
2018-09-15T10:04:15.118Z,60.17
2018-09-15T10:05:15.113Z,59.33
2018-09-15T10:06:15.098Z,58.07
2018-09-15T10:07:15.179Z,56.75
2018-09-15T10:08:15.086Z,54.27
2018-09-15T10:09:15.079Z,55.70
2018-09-15T10:10:15.066Z,56.09
2018-09-15T10:11:15.066Z,56.25
2018-09-15T10:12:15.052Z,57.84
2018-09-15T10:13:15.052Z,58.45
2018-09-15T10:14:15.045Z,59.56
2018-09-15T10:15:15.036Z,60.17
2018-09-15T10:16:15.050Z,55.27
2018-09-15T10:17:15.017Z,55.98
2018-09-15T10:18:15.010Z,55.46
2018-09-15T10:19:15.000Z,55.36
2018-09-15T10:20:14.991Z,55.46
2018-09-15T10:21:14.988Z,56.79
2018-09-15T10:22:14.982Z,56.14
2018-09-15T10:23:14.975Z,56.94
2018-09-15T10:24:14.962Z,56.36
2018-09-15T10:25:14.959Z,54.35
2018-09-15T10:26:14.953Z,55.18
2018-09-15T10:27:14.944Z,51.93
2018-09-15T10:28:14.940Z,54.48
2018-09-15T10:29:14.930Z,54.06
2018-09-15T10:30:14.924Z,52.97
2018-09-15T10:31:14.921Z,53.26
2018-09-15T10:32:14.918Z,52.22
2018-09-15T10:33:14.908Z,52.78
2018-09-15T10:34:14.900Z,52.00
2018-09-15T10:35:14.925Z,54.88
2018-09-15T10:36:15.014Z,56.47
2018-09-15T10:37:14.889Z,55.35
2018-09-15T10:38:14.886Z,55.09
2018-09-15T10:39:14.880Z,58.12
2018-09-15T10:40:14.933Z,60.88
2018-09-15T10:41:14.870Z,57.11
2018-09-15T10:42:14.855Z,54.08
2018-09-15T10:43:14.863Z,58.35
2018-09-15T10:44:14.843Z,57.51
2018-09-15T10:45:14.836Z,57.54
2018-09-15T10:46:14.831Z,56.60
2018-09-15T10:47:14.830Z,50.40
2018-09-15T10:48:14.826Z,50.52
2018-09-15T10:49:14.814Z,51.88
2018-09-15T10:50:14.820Z,53.85
2018-09-15T10:51:14.801Z,52.39
2018-09-15T10:52:14.846Z,56.41
2018-09-15T10:53:14.791Z,53.29
2018-09-15T10:54:14.787Z,53.67
2018-09-15T10:55:14.784Z,50.96
2018-09-15T10:56:14.794Z,54.52
2018-09-15T10:57:14.820Z,51.83
2018-09-15T10:58:14.765Z,54.19
2018-09-15T10:59:14.768Z,54.75
2018-09-15T11:00:14.832Z,56.73
2018-09-15T11:01:14.758Z,54.44
2018-09-15T11:02:14.746Z,55.60
2018-09-15T11:03:14.749Z,55.67
2018-09-15T11:04:14.736Z,57.21
2018-09-15T11:05:14.733Z,54.41
2018-09-15T11:06:14.726Z,57.05
2018-09-15T11:07:14.726Z,56.28
2018-09-15T11:08:14.733Z,57.08
2018-09-15T11:09:14.756Z,56.95
2018-09-15T11:10:14.723Z,57.51
2018-09-15T11:11:14.749Z,57.41
2018-09-15T11:12:14.710Z,58.93
2018-09-15T11:13:14.698Z,56.18
2018-09-15T11:14:14.688Z,56.95
2018-09-15T11:15:14.701Z,55.57
2018-09-15T11:16:14.719Z,57.57
2018-09-15T11:17:14.694Z,57.48
2018-09-15T11:18:14.668Z,57.16
2018-09-15T11:19:14.675Z,59.25
2018-09-15T11:20:14.675Z,57.78
2018-09-15T11:21:14.659Z,58.45
2018-09-15T11:22:14.646Z,59.90
2018-09-15T11:23:14.671Z,61.35
2018-09-15T11:24:14.660Z,62.70
2018-09-15T11:25:14.642Z,61.22
2018-09-15T11:26:14.622Z,62.86
2018-09-15T11:27:14.616Z,62.45
2018-09-15T11:28:14.617Z,63.12
2018-09-15T11:29:14.614Z,63.15
2018-09-15T11:30:14.594Z,60.90
2018-09-15T11:31:14.585Z,62.76
2018-09-15T11:32:14.581Z,64.47
2018-09-15T11:33:14.575Z,62.73
2018-09-15T11:34:14.580Z,62.45
2018-09-15T11:35:14.569Z,63.21
2018-09-15T11:36:14.540Z,62.15
2018-09-15T11:37:14.559Z,64.66
2018-09-15T11:38:14.531Z,61.68
2018-09-15T11:39:14.519Z,63.60
2018-09-15T11:40:14.511Z,63.89
2018-09-15T11:41:14.508Z,64.86
2018-09-15T11:42:14.501Z,63.79
2018-09-15T11:43:14.485Z,60.90
2018-09-15T11:44:14.476Z,60.96
2018-09-15T11:45:14.479Z,62.15
2018-09-15T11:46:14.455Z,59.38
2018-09-15T11:47:14.454Z,58.15
2018-09-15T11:48:14.455Z,57.57
2018-09-15T11:49:14.436Z,57.70
2018-09-15T11:50:14.440Z,56.71
2018-09-15T11:51:14.439Z,57.41
2018-09-15T11:52:14.430Z,55.47
2018-09-15T11:53:14.423Z,56.54
2018-09-15T11:54:14.403Z,56.83
2018-09-15T11:55:14.406Z,55.65
2018-09-15T11:56:14.413Z,57.60
2018-09-15T11:57:14.907Z,57.51
2018-09-15T11:58:14.452Z,57.99
2018-09-15T11:59:14.385Z,57.70
2018-09-15T12:00:14.382Z,57.77
2018-09-15T12:01:14.404Z,57.89
2018-09-15T12:02:14.382Z,57.51
2018-09-15T12:03:14.398Z,57.19
2018-09-15T12:04:14.370Z,58.22
2018-09-15T12:05:14.362Z,58.12
2018-09-15T12:06:14.346Z,59.25
2018-09-15T12:07:14.346Z,59.55
2018-09-15T12:08:14.350Z,60.00
2018-09-15T12:09:14.372Z,61.99
2018-09-15T12:10:14.337Z,61.51
2018-09-15T12:11:14.333Z,60.68
2018-09-15T12:12:14.330Z,60.06
2018-09-15T12:13:14.317Z,60.73
2018-09-15T12:14:14.351Z,57.77
2018-09-15T12:15:14.308Z,57.87
2018-09-15T12:16:14.301Z,59.63
2018-09-15T12:17:14.305Z,57.63
2018-09-15T12:18:14.307Z,56.15
2018-09-15T12:19:14.285Z,58.89
2018-09-15T12:20:14.293Z,56.86
2018-09-15T12:21:14.343Z,53.89
2018-09-15T12:22:14.285Z,54.27
2018-09-15T12:23:14.269Z,55.07
2018-09-15T12:24:14.266Z,55.53
2018-09-15T12:25:14.257Z,54.47
2018-09-15T12:26:14.255Z,53.09
2018-09-15T12:27:14.253Z,56.41
2018-09-15T12:28:14.250Z,58.42
2018-09-15T12:29:14.233Z,59.25
2018-09-15T12:30:14.243Z,59.42
2018-09-15T12:31:14.224Z,59.90
2018-09-15T12:32:14.250Z,59.87
2018-09-15T12:33:14.220Z,60.93
2018-09-15T12:34:14.202Z,61.90
2018-09-15T12:35:14.227Z,61.96
2018-09-15T12:36:14.250Z,61.77
2018-09-15T12:37:14.192Z,61.29
2018-09-15T12:38:14.179Z,61.58
2018-09-15T12:39:14.195Z,63.18
2018-09-15T12:40:14.175Z,63.89
2018-09-15T12:41:14.176Z,61.74
2018-09-15T12:42:14.154Z,61.65
2018-09-15T12:43:14.178Z,64.56
2018-09-15T12:44:14.141Z,63.85
2018-09-15T12:45:14.152Z,62.63
2018-09-15T12:46:14.125Z,62.73
2018-09-15T12:47:14.115Z,62.54
2018-09-15T12:48:14.103Z,63.60
2018-09-15T12:49:14.106Z,62.93
2018-09-15T12:50:14.116Z,62.18
2018-09-15T12:51:14.083Z,59.30
2018-09-15T12:52:14.072Z,59.39